Stations météo

réclame
Mon MeteoGroup
Großer Arber, Allemagne (10791): Température de l'air & dewpoint: 14.07.2018 22:00:00 - 20.07.2018 22:00:00 (CEST)Großer Arber, Allemagne (10791): Vitesse du vent & gusts: 14.07.2018 22:00:00 - 20.07.2018 22:00:00 (CEST)Großer Arber, Allemagne (10791): Direction du vent: 14.07.2018 22:00:00 - 20.07.2018 22:00:00 (CEST)Großer Arber, Allemagne (10791): visibility: 14.07.2018 22:00:00 - 20.07.2018 22:00:00 (CEST)Großer Arber, Allemagne (10791): Ensoleillement: 14.07.2018 22:00:00 - 20.07.2018 22:00:00 (CEST)Großer Arber, Allemagne (10791): Quantités de précipitations: 14.07.2018 22:00:00 - 20.07.2018 22:00:00 (CEST)
Date & Time tt [°C] td [°C] ff [km/h] ff [knt] fx [km/h] fx [knt] dd vv [km] sd [min] rr [mm]
20.07.2018 22:00:00 16,2 6,8 8 4 8 5 ESE 58 0 0,0
20.07.2018 21:00:00 16,3 7,6 6 3 9 5 ESE 62 43 0,0
20.07.2018 20:00:00 17,4 7,6 6 3 9 5 NNE 52 60 0,0
20.07.2018 19:00:00 18,0 7,6 6 4 12 7 E 51 53 0,0
20.07.2018 18:00:00 17,9 8,8 8 4 16 8 N 75 25 0,0
20.07.2018 17:00:00 18,4 7,9 9 5 14 8 NNW 75 1 0,0
20.07.2018 16:00:00 18,0 8,5 8 5 13 7 NNW 69 0 0,0
20.07.2018 15:00:00 17,4 8,4 8 4 21 12 NNW 75 16 0,0
20.07.2018 14:00:00 18,5 8,4 9 5 17 9 N 64 35 0,0
20.07.2018 13:00:00 17,2 8,0 8 5 13 7 NW 75 15 0,0
20.07.2018 12:00:00 16,4 8,3 6 3 13 7 NW 57 16 0,0
20.07.2018 11:00:00 16,5 7,7 6 3 10 6 WSW 58 19 0,0
20.07.2018 10:00:00 14,3 7,6 6 3 11 6 SSW 61 16 0,0
20.07.2018 09:00:00 15,3 7,4 9 5 13 7 S 64 60 0,0
20.07.2018 08:00:00 15,2 6,3 7 4 12 6 S 67 60 0,0
20.07.2018 07:00:00 14,2 5,3 9 5 11 6 S 53 15 0,0
20.07.2018 06:00:00 12,2 7,5 8 5 14 8 ESE 41 0 0,0
20.07.2018 05:00:00 12,2 7,8 10 6 14 8 E 39 0 0,0
20.07.2018 04:00:00 12,4 7,1 10 6 15 8 E 51 0 0,0
20.07.2018 03:00:00 12,9 6,8 10 5 14 8 E 50 0 0,0
20.07.2018 02:00:00 13,2 7,0 11 6 24 13 E 50 0 0,0
20.07.2018 01:00:00 12,4 6,6 16 8 21 12 E 57 0 0,0
20.07.2018 00:00:00 13,5 6,3 16 9 25 14 ENE 62 0 0,0
19.07.2018 23:00:00 13,8 6,2 16 8 24 13 NE 59 0 0,0
19.07.2018 22:00:00 14,8 3,1 15 8 21 12 N 75 0 0,0
19.07.2018 21:00:00 15,7 4,7 13 7 19 10 N 72 57 0,0
19.07.2018 20:00:00 17,5 5,2 13 7 23 13 NNW 75 60 0,0
19.07.2018 19:00:00 18,1 6,1 13 7 31 17 NNW 57 60 0,0
19.07.2018 18:00:00 18,3 5,4 11 6 25 13 NW 75 51 0,0
19.07.2018 17:00:00 18,3 5,9 14 7 28 15 NNW 73 41 0,0
19.07.2018 16:00:00 17,6 6,1 14 8 31 17 NNW 62 57 0,0
19.07.2018 15:00:00 18,5 8,3 15 8 31 17 NW 68 60 0,0
19.07.2018 14:00:00 18,3 8,7 15 8 30 16 NNW 62 60 0,0
19.07.2018 13:00:00 17,2 6,5 15 8 26 14 NW 56 60 0,0
19.07.2018 12:00:00 16,1 7,8 15 8 23 13 NNW 75 60 0,0
19.07.2018 11:00:00 15,0 8,0 13 7 23 13 NNW 52 60 0,0
19.07.2018 10:00:00 14,2 7,6 16 9 30 16 NNW 65 60 0,0
19.07.2018 09:00:00 13,1 7,5 17 9 24 13 N 59 60 0,0
19.07.2018 08:00:00 12,3 6,5 19 11 26 14 NNW 73 60 0,0
19.07.2018 07:00:00 11,6 6,0 16 8 24 13 N 73 15 0,0
19.07.2018 06:00:00 10,1 6,0 16 8 22 12 N 52 0 0,0
19.07.2018 05:00:00 9,9 6,3 16 9 19 11 N 49 0 0,0
19.07.2018 04:00:00 10,7 6,5 15 8 19 11 NNW 46 0 0,0
19.07.2018 03:00:00 11,0 6,6 13 7 24 13 NE 55 0 0,0
19.07.2018 02:00:00 11,0 6,9 15 8 30 16 NNE 46 0 0,0
19.07.2018 01:00:00 11,5 6,9 16 9 36 19 N 54 0 0,0
19.07.2018 00:00:00 12,9 6,0 27 14 36 19 N 57 0 0,0
18.07.2018 23:00:00 13,6 7,3 19 10 36 19 N 61 0 0,0
18.07.2018 22:00:00 14,3 7,2 27 15 38 20 NNW 66 0 0,0
18.07.2018 21:00:00 15,5 7,5 24 13 39 21 NW 66 58 0,0
18.07.2018 20:00:00 17,3 6,8 26 14 44 24 NW 60 60 0,0
18.07.2018 19:00:00 18,3 7,7 23 12 38 21 NW 55 19 0,0
18.07.2018 18:00:00 17,1 7,0 25 13 46 25 NNW 62 26 0,0
18.07.2018 17:00:00 18,7 7,0 25 14 47 26 NW 51 41 0,0
18.07.2018 16:00:00 18,3 6,6 32 17 50 27 NW 41 30 0,0
18.07.2018 15:00:00 16,4 6,6 36 20 55 30 NW 63 24 0,0
18.07.2018 14:00:00 17,8 7,5 39 21 59 32 NW 40 39 0,0
18.07.2018 13:00:00 17,1 9,0 32 17 51 28 NW 57 30 0,0
18.07.2018 12:00:00 16,8 10,1 27 14 51 27 NNW 49 55 0,0
18.07.2018 11:00:00 15,1 9,3 26 14 38 20 NW 55 37 0,0
18.07.2018 10:00:00 15,0 8,6 24 13 36 20 NW 44 60 0,0
18.07.2018 09:00:00 13,7 8,3 26 14 37 20 NW 47 60 0,0
18.07.2018 08:00:00 12,9 7,6 27 15 37 20 NW 38 58 0,0
18.07.2018 07:00:00 11,8 7,1 30 16 39 21 NW 43 1 0,0
18.07.2018 06:00:00 12,2 6,2 29 16 37 20 NW 65 0 0,0
18.07.2018 05:00:00 12,3 5,8 27 14 39 21 NW 63 0 0,0
18.07.2018 04:00:00 12,6 5,7 29 16 40 21 NNW 55 0 0,0
18.07.2018 03:00:00 12,7 6,1 32 18 42 23 NNW 57 0 0,0
18.07.2018 02:00:00 12,8 6,8 29 16 38 21 NNW 53 0 0,0
18.07.2018 01:00:00 13,4 7,2 31 17 51 28 NW 60 0 0,0
18.07.2018 00:00:00 14,3 7,6 34 19 52 28 WNW 64 0 0,0
17.07.2018 23:00:00 14,8 7,2 36 19 54 29 W 63 0 0,0
17.07.2018 22:00:00 15,2 6,4 35 19 47 26 WNW 73 0 0,0
17.07.2018 21:00:00 15,2 6,5 26 14 46 25 WNW 60 41 0,0
17.07.2018 20:00:00 15,1 6,0 32 17 43 23 NW 75 0 0,0
17.07.2018 19:00:00 15,0 6,9 32 17 58 31 WNW 75 10 0,0
17.07.2018 18:00:00 17,2 7,0 33 18 49 27 NW 51 42 0,0
17.07.2018 17:00:00 18,4 8,0 19 11 42 23 NW 57 20 0,0
17.07.2018 16:00:00 18,4 7,0 26 14 45 24 NW 55 42 0,0
17.07.2018 15:00:00 17,8 8,9 19 11 40 21 NNW 48 42 0,0
17.07.2018 14:00:00 14,6 9,0 21 11 47 26 NW 46 17 0,0
17.07.2018 13:00:00 16,0 8,3 27 15 46 25 NW 53 50 0,0
17.07.2018 12:00:00 15,4 7,2 27 15 49 27 NW 56 43 0,0
17.07.2018 11:00:00 15,5 8,1 26 14 42 23 NNW 57 60 0,0
17.07.2018 10:00:00 14,2 8,0 25 14 38 21 NW 51 60 0,0
17.07.2018 09:00:00 13,6 8,9 22 12 37 20 NNW 43 60 0,0
17.07.2018 08:00:00 12,0 8,4 21 12 31 17 NNW 40 11 0,0
17.07.2018 07:00:00 10,8 7,9 21 11 32 17 NNW 37 0 0,0
17.07.2018 06:00:00 10,9 8,0 26 14 35 19 N 37 0 0,0
17.07.2018 05:00:00 11,2 7,6 25 14 37 20 NNW 45 0 0,0
17.07.2018 04:00:00 11,4 7,8 20 11 26 14 NNW 48 0 0,0
17.07.2018 03:00:00 11,8 7,6 21 11 27 15 N 49 0 0,0
17.07.2018 02:00:00 11,3 7,7 18 10 24 13 N 42 0 0,0
17.07.2018 01:00:00 11,6 7,0 16 9 27 14 N 64 0 0,0
17.07.2018 00:00:00 11,0 7,5 19 11 27 15 NNE 48 0 0,0
16.07.2018 23:00:00 11,8 6,2 12 6 23 12 ENE 75 0 0,0
16.07.2018 22:00:00 11,3 6,2 19 10 27 14 NE 73 0 0,0
16.07.2018 21:00:00 11,8 5,8 14 7 19 11 NNE 75 14 0,0
16.07.2018 20:00:00 12,8 6,0 16 9 19 10 NNW 75 38 0,0
16.07.2018 19:00:00 12,9 8,5 12 7 29 16 N 45 0 0,0
16.07.2018 18:00:00 11,5 9,3 26 14 39 21 N 36 0 0,0
16.07.2018 17:00:00 12,2 10,6 29 15 40 22 NNW 16 12 0,0
16.07.2018 16:00:00 15,1 7,8 5 3 10 5 SW 73 0 0,0
16.07.2018 15:00:00 13,9 9,0 4 2 8 5 N 63 0 0,0
16.07.2018 14:00:00 13,1 9,7 6 3 20 11 NNE 30 2 2,0
16.07.2018 13:00:00 14,3 10,5 9 5 20 11 NNW 41 13 0,0
16.07.2018 12:00:00 14,5 11,2 8 4 16 9 WNW 43 37 0,0
16.07.2018 11:00:00 14,1 10,7 6 4 13 7 WSW 52 7 0,0
16.07.2018 10:00:00 13,9 9,0 9 5 15 8 W 65 21 0,0
16.07.2018 09:00:00 13,6 7,7 8 4 12 7 SSW 67 43 0,0
16.07.2018 08:00:00 13,7 6,8 10 5 11 6 SW 64 27 0,0
16.07.2018 07:00:00 12,9 5,7 6 4 7 4 WSW 63 5 0,0
16.07.2018 06:00:00 12,6 6,7 4 2 5 3 NW 64 0 0,0
16.07.2018 05:00:00 12,3 7,2 5 3 9 5 N 65 0 0,0
16.07.2018 04:00:00 12,4 6,8 6 4 9 5 NNW 61 0 0,0
16.07.2018 03:00:00 12,4 5,5 8 5 13 7 NW 72 0 0,0
16.07.2018 02:00:00 12,2 6,4 8 5 14 8 N 60 0 0,0
16.07.2018 01:00:00 11,6 6,6 14 8 16 9 NW 62 0 0,0
16.07.2018 00:00:00 11,9 6,4 13 7 19 11 NW 75 0 0,0
15.07.2018 23:00:00 12,5 5,4 14 8 16 9 NNW 75 0 0,0
15.07.2018 22:00:00 13,4 4,6 8 4 17 9 W 75 0 0,0
15.07.2018 21:00:00 13,6 4,2 7 4 11 6 SW 75 20 0,0
15.07.2018 20:00:00 14,1 6,2 11 6 13 7 SSW 75 57 0,0
15.07.2018 19:00:00 15,1 8,5 8 4 10 6 SW 57 52 0,0
15.07.2018 18:00:00 14,4 8,9 8 4 14 8 SW 49 0 0,0
15.07.2018 17:00:00 14,1 9,1 8 5 13 7 N 50 0 0,2
15.07.2018 16:00:00 13,3 8,0 10 5 23 12 NNE 31 0 0,4
15.07.2018 15:00:00 12,4 5,7 9 5 39 21 E 12 0 8,4
15.07.2018 14:00:00 15,3 9,0 5 3 16 8 ESE 16 29 0,4
15.07.2018 13:00:00 16,7 8,3 5 3 14 8 WNW 53 11 0,7
15.07.2018 12:00:00 16,2 8,6 9 5 14 7 W 62 10 0,0
15.07.2018 11:00:00 15,2 8,1 8 4 19 11 WSW 44 47 0,0
15.07.2018 10:00:00 15,4 7,0 7 4 14 8 SSW 58 58 0,0
15.07.2018 09:00:00 15,1 7,3 6 4 10 5 SSW 42 60 0,0
15.07.2018 08:00:00 13,5 6,2 7 4 13 7 SSE 61 12 0,0
15.07.2018 07:00:00 12,3 5,7 10 6 13 7 ESE 54 0 0,0
15.07.2018 06:00:00 11,9 5,9 8 4 12 7 ESE 67 0 0,0
15.07.2018 05:00:00 12,4 5,5 10 5 15 8 SE 75 0 0,0
15.07.2018 04:00:00 12,5 5,4 13 7 16 9 SE 68 0 0,0
15.07.2018 03:00:00 12,5 5,6 14 8 22 12 SE 66 0 0,0
15.07.2018 02:00:00 11,9 6,0 16 8 25 13 E 61 0 0,0
15.07.2018 01:00:00 12,6 6,7 15 8 22 12 ENE 67 0 0,0
15.07.2018 00:00:00 13,1 7,4 14 7 19 10 NE 65 0 0,0
14.07.2018 23:00:00 13,1 7,9 13 7 17 9 N 49 0 0,0
14.07.2018 22:00:00 13,4 8,1 12 6 14 7 NNW 48 0 0,0

tt = Température de l'air
td = dewpoint
ff = Vitesse du vent
fx = gusts
dd = Direction du vent
vv = visibility
sd = Ensoleillement
rr = Quantités de précipitations

stations d'obs. à proximité